首页
METAR-TAF:

METAR-TAF

机场 :

Grand Forks Air Force Base

大福克斯, 北达科他州, 美国

纬度: 47-58N, 经度: 097-24W, 海拔: 278米

当前天气观测

该预报发布于52分钟前的21:55 UTC
风速9节,风向南转南东
温度 28°C
湿度 28%
气压 1014 hPa
能見度: 16.1公里
天空无云

METAR: KRDR 142155Z AUTO 16009KT 10SM CLR 28/08 A2993 RMK AO2 SLP139 T02760084 $

时间: 17:47 (22:47 UTC)

预报

该预报发布于4小时和47分钟前的18:00 UTC
预报有效从14日的 18点(UTC)到 15日的 24点(UTC)
风速6节,风向多变
能见度10公里或以上
多云层高于6000英尺
成为
从 15日的 05点(UTC)到 15日的 06点(UTC)
风速10节,风向南转南东
能見度: 9000
多云层高于5000英尺
阴天层高于10000英尺
小阵雨
成为
从 15日的 11点(UTC)到 15日的 12点(UTC)
风速12节,风向南转南东
能见度10公里或以上
多云层高于6500英尺
成为
从 15日的 13点(UTC)到 15日的 14点(UTC)
风速15节,风向南转南东,有时为25节阵风
能见度10公里或以上
散云层高于2000英尺
多云层高于8000英尺
成为
从 15日的 16点(UTC)到 15日的 17点(UTC)
风速15节,风向,有时为25节阵风
能见度10公里或以上
阴天层高于3000英尺
成为
从 15日的 21点(UTC)到 15日的 22点(UTC)
风速15节,风向南转南东,有时为25节阵风
能見度: 9000
阴天层高于3000英尺
小阵雨
成为
从 15日的 23点(UTC)到 15日的 24点(UTC)
风速12节,风向,有时为18节阵风
能見度: 9000
阴天层高于3000英尺
小阵雨,

TAF: KRDR 141800Z 1418/1524 VRB06KT 9999 BKN060 QNH2984INS BECMG 1505/1506 16010KT 9000 -SHRA BKN050 OVC100 QNH2976INS BECMG 1511/1512 15012KT 9999 NSW BKN065 QNH2973INS BECMG 1513/1514 16015G25KT 9999 SCT020 BKN080 QNH2971INS BECMG 1516/1517 18015G25KT 9999 OVC030 QNH2964INS BECMG 1521/1522 16015G25KT 9000 -SHRA OVC030 QNH2956INS BECMG 1523/1524 17012G18KT 9000 -SHRA OVC030 QNH2955INS TX28/1422Z TN15/1512Z

超过4000个机场的气象观测和天气预报(METAR&TAF报告)。

可查询的气象台以黄色和红色小点在地图上表示。

将鼠标移到小点上方,可查看气象台名称。

然后点击查看天气观测和预报。

如需切换地图:点击带黑十字的绿色按钮放大地图;点击带横线的绿色按钮缩小地图;或者点击绿色箭头查看邻近地区的地图。


METAR-TAF: